Time;durP1;ratioP1;P1;durP2;ratioP2;P2;SDS_P1;SDS_P2;PMS_P1;PMS_P2;Temp;Humidity;BMP_temperature;BMP_pressure;BME280_temperature;BME280_humidity;BME280_pressure;Samples;Min_cycle;Max_cycle;Signal;HPM_P1;HPM_P2
2021/12/17 00:00:47;;;;;;;0.50;0.10;;;9.90;1.00;;;;;;5074635;28;20449;-73
2021/12/17 00:03:20;;;;;;;0.50;0.10;;;9.90;1.00;;;;;;5074435;28;20465;-73
2021/12/17 00:06:11;;;;;;;0.50;0.10;;;9.90;1.00;;;;;;5074698;28;20512;-70
2021/12/17 00:08:41;;;;;;;0.50;0.10;;;9.90;1.00;;;;;;5074378;28;20441;-71
2021/12/17 00:11:10;;;;;;;0.50;0.10;;;9.90;1.00;;;;;;5074538;28;20485;-71
2021/12/17 00:13:39;;;;;;;0.50;0.10;;;9.90;1.00;;;;;;5074405;28;20463;-71
2021/12/17 00:16:15;;;;;;;0.50;0.10;;;9.90;1.00;;;;;;5074333;28;20445;-71
2021/12/17 00:18:57;;;;;;;0.57;0.20;;;9.90;1.00;;;;;;5074449;28;20441;-70
2021/12/17 00:44:14;;;;;;;0.50;0.10;;;9.90;1.00;;;;;;5073573;28;20827;-71
2021/12/17 00:49:34;;;;;;;0.50;0.10;;;9.90;1.00;;;;;;5073831;28;20438;-71
2021/12/17 00:52:03;;;;;;;0.50;0.10;;;9.90;1.00;;;;;;5073891;28;20449;-72
2021/12/17 00:54:37;;;;;;;0.53;0.10;;;9.80;1.00;;;;;;5073030;28;20440;-70
2021/12/17 00:57:14;;;;;;;0.60;0.10;;;9.80;1.00;;;;;;5067526;28;20444;-70
2021/12/17 00:59:43;;;;;;;0.50;0.10;;;9.90;1.00;;;;;;5073595;28;20444;-70
2021/12/17 01:02:13;;;;;;;0.50;0.10;;;9.90;1.00;;;;;;5072367;28;21062;-71
2021/12/17 01:04:45;;;;;;;0.50;0.10;;;9.90;1.00;;;;;;5072906;28;20444;-71
2021/12/17 01:07:13;;;;;;;0.50;0.20;;;9.90;1.00;;;;;;5073195;28;20461;-71
2021/12/17 01:09:42;;;;;;;0.50;0.10;;;9.90;1.00;;;;;;5073143;28;20441;-71
2021/12/17 01:12:10;;;;;;;0.50;0.10;;;10.00;1.00;;;;;;5072972;28;20461;-71
2021/12/17 01:14:40;;;;;;;0.60;0.10;;;10.00;1.00;;;;;;5073258;28;20452;-71
2021/12/17 01:17:09;;;;;;;0.63;0.63;;;10.00;1.00;;;;;;5073108;28;20951;-71
2021/12/17 01:20:09;;;;;;;0.50;0.10;;;10.00;1.00;;;;;;5073109;28;20552;-71
2021/12/17 01:22:51;;;;;;;1.33;1.23;;;10.00;1.00;;;;;;5072711;28;20461;-71
2021/12/17 01:25:34;;;;;;;0.50;0.10;;;10.00;1.00;;;;;;5072506;28;20946;-71
2021/12/17 01:36:25;;;;;;;0.50;0.10;;;10.10;1.00;;;;;;5073552;28;20976;-69
2021/12/17 01:44:30;;;;;;;0.50;0.10;;;10.10;1.00;;;;;;5068229;28;20460;-72
2021/12/17 01:46:58;;;;;;;0.50;0.30;;;10.10;1.00;;;;;;5073082;28;20441;-71
2021/12/17 01:55:46;;;;;;;0.50;0.10;;;10.10;1.00;;;;;;5072600;28;20449;-72
2021/12/17 02:00:47;;;;;;;0.50;0.10;;;10.10;1.00;;;;;;5071441;28;20434;-71
2021/12/17 02:03:16;;;;;;;0.50;0.10;;;10.00;1.00;;;;;;5070118;28;20504;-71
2021/12/17 02:05:45;;;;;;;1.37;1.27;;;10.00;1.00;;;;;;5070401;28;20477;-70
2021/12/17 02:08:13;;;;;;;0.60;0.10;;;10.00;1.00;;;;;;5071489;28;20444;-72
2021/12/17 02:11:22;;;;;;;0.50;0.10;;;10.00;1.00;;;;;;5071874;28;20483;-70
2021/12/17 02:19:45;;;;;;;0.50;0.10;;;10.00;1.00;;;;;;5072155;28;20615;-71
2021/12/17 02:31:00;;;;;;;0.67;0.40;;;10.00;1.00;;;;;;5071943;28;20477;-71
2021/12/17 02:33:28;;;;;;;0.60;0.33;;;9.90;1.00;;;;;;5072511;28;20464;-71
2021/12/17 02:35:57;;;;;;;0.53;0.10;;;10.00;1.00;;;;;;5071730;28;20834;-71
2021/12/17 02:38:28;;;;;;;0.53;0.10;;;9.90;1.00;;;;;;5071765;28;20445;-71
2021/12/17 02:46:27;;;;;;;0.60;0.20;;;10.00;1.00;;;;;;5072701;28;20433;-72
2021/12/17 02:48:56;;;;;;;0.60;0.10;;;10.00;1.00;;;;;;5071801;28;20445;-70
2021/12/17 02:51:25;;;;;;;0.50;0.20;;;10.00;1.00;;;;;;5071577;28;20484;-71
2021/12/17 02:53:55;;;;;;;0.60;0.30;;;10.00;1.00;;;;;;5071032;28;20499;-72
2021/12/17 02:56:23;;;;;;;0.50;0.10;;;10.00;1.00;;;;;;5061637;28;20449;-71
2021/12/17 02:58:53;;;;;;;0.60;0.30;;;10.00;1.00;;;;;;5071827;28;20445;-71
2021/12/17 03:01:22;;;;;;;0.50;0.10;;;10.00;1.00;;;;;;5070777;28;20892;-70
2021/12/17 03:03:52;;;;;;;0.57;0.10;;;10.00;1.00;;;;;;5071211;28;20888;-71
2021/12/17 03:06:21;;;;;;;0.50;0.10;;;10.00;1.00;;;;;;5071465;28;20437;-71
2021/12/17 03:08:49;;;;;;;0.50;0.10;;;9.90;1.00;;;;;;5071836;28;20442;-71
2021/12/17 03:11:19;;;;;;;0.50;0.10;;;9.90;1.00;;;;;;5071853;28;20474;-71
2021/12/17 03:13:49;;;;;;;0.60;0.10;;;9.90;1.00;;;;;;5071443;28;20983;-71
2021/12/17 03:16:27;;;;;;;0.50;0.10;;;10.00;1.00;;;;;;5072622;28;20444;-71
2021/12/17 03:19:05;;;;;;;0.50;0.10;;;10.00;1.00;;;;;;5075713;28;20801;-71
2021/12/17 03:24:20;;;;;;;0.50;0.10;;;9.90;1.00;;;;;;5074856;28;20990;-72
2021/12/17 03:26:50;;;;;;;0.50;0.10;;;9.90;1.00;;;;;;5075251;28;20452;-72
2021/12/17 03:29:18;;;;;;;0.50;0.10;;;9.90;1.00;;;;;;5075213;28;20449;-72
2021/12/17 03:31:46;;;;;;;0.50;0.10;;;9.90;1.00;;;;;;5074672;28;21005;-72
2021/12/17 03:34:19;;;;;;;0.50;0.10;;;9.90;1.00;;;;;;5075093;28;20448;-70
2021/12/17 03:36:53;;;;;;;0.60;0.10;;;9.90;1.00;;;;;;5075227;28;20433;-71
2021/12/17 03:39:22;;;;;;;0.50;0.10;;;9.90;1.00;;;;;;5075079;28;20444;-73
2021/12/17 03:41:52;;;;;;;0.50;0.10;;;10.00;1.00;;;;;;5074806;28;20449;-72
2021/12/17 03:44:21;;;;;;;0.50;0.10;;;10.00;1.00;;;;;;5075035;28;20460;-72
2021/12/17 03:46:51;;;;;;;0.50;0.10;;;10.00;1.00;;;;;;5074815;28;20494;-72
2021/12/17 03:49:21;;;;;;;0.50;0.10;;;10.00;1.00;;;;;;5073929;28;20445;-72
2021/12/17 03:51:53;;;;;;;0.60;0.10;;;10.10;1.00;;;;;;5074538;28;20479;-71
2021/12/17 03:54:21;;;;;;;0.50;0.10;;;10.00;1.00;;;;;;5092351;22;20982;-68
2021/12/17 03:56:52;;;;;;;0.50;0.10;;;10.00;1.00;;;;;;5074887;28;20437;-68
2021/12/17 03:59:20;;;;;;;0.50;0.10;;;10.00;1.00;;;;;;5075540;28;20446;-68
2021/12/17 04:01:48;;;;;;;0.50;0.10;;;10.00;1.00;;;;;;5075296;28;20444;-69
2021/12/17 04:04:15;;;;;;;0.60;0.10;;;10.00;1.00;;;;;;5074379;28;20461;-69
2021/12/17 04:06:44;;;;;;;0.50;0.10;;;10.00;1.00;;;;;;5074296;28;20934;-69
2021/12/17 04:09:12;;;;;;;0.50;0.10;;;10.00;1.00;;;;;;5074877;28;20453;-68
2021/12/17 04:11:39;;;;;;;0.50;0.10;;;10.00;1.00;;;;;;5074761;28;20843;-68
2021/12/17 04:14:10;;;;;;;0.50;0.13;;;10.00;1.00;;;;;;5074399;28;20461;-68
2021/12/17 04:16:38;;;;;;;0.50;0.10;;;10.00;1.00;;;;;;5070785;28;20537;-69
2021/12/17 04:19:06;;;;;;;0.57;0.10;;;10.00;1.00;;;;;;5073323;28;20437;-69
2021/12/17 04:21:34;;;;;;;0.50;0.10;;;10.00;1.00;;;;;;5073833;28;20449;-68
2021/12/17 04:24:02;;;;;;;0.60;0.10;;;10.00;1.00;;;;;;5074421;28;20457;-69
2021/12/17 04:26:30;;;;;;;0.50;0.10;;;10.00;1.00;;;;;;5074196;28;20536;-69
2021/12/17 04:28:58;;;;;;;0.60;0.10;;;10.00;1.00;;;;;;5073823;28;20441;-69
2021/12/17 04:31:29;;;;;;;0.60;0.10;;;10.00;1.00;;;;;;5073851;28;20460;-69
2021/12/17 04:33:57;;;;;;;0.50;0.10;;;10.00;1.00;;;;;;5074082;28;20458;-69
2021/12/17 04:36:29;;;;;;;0.50;0.10;;;10.00;1.00;;;;;;5075546;28;20548;-69
2021/12/17 04:38:59;;;;;;;0.50;0.10;;;10.00;1.00;;;;;;5074735;28;20445;-69
2021/12/17 04:41:43;;;;;;;0.50;0.10;;;10.00;1.00;;;;;;5075694;28;20443;-69
2021/12/17 04:44:16;;;;;;;0.50;0.10;;;10.00;1.00;;;;;;5076418;28;20469;-69
2021/12/17 04:46:50;;;;;;;0.50;0.10;;;10.00;1.00;;;;;;5076876;28;20549;-69
2021/12/17 04:57:46;;;;;;;0.50;0.10;;;10.10;1.00;;;;;;5069842;28;20434;-70
2021/12/17 05:00:18;;;;;;;0.50;0.10;;;10.10;1.00;;;;;;5074808;28;20952;-69
2021/12/17 05:02:51;;;;;;;0.60;0.10;;;10.00;1.00;;;;;;5075587;28;20814;-68
2021/12/17 05:05:22;;;;;;;0.57;0.10;;;10.00;1.00;;;;;;5074695;28;20850;-69
2021/12/17 05:07:53;;;;;;;0.50;0.10;;;10.00;1.00;;;;;;5073264;28;20452;-71
2021/12/17 05:10:29;;;;;;;0.60;0.10;;;10.10;1.00;;;;;;5074250;28;20437;-70
2021/12/17 05:18:39;;;;;;;0.50;0.10;;;;;;;;;;5076881;28;20441;-69
2021/12/17 05:21:07;;;;;;;0.60;0.10;;;10.00;1.00;;;;;;5076564;28;20465;-68
2021/12/17 05:23:41;;;;;;;0.50;0.10;;;10.00;1.00;;;;;;5076331;28;20465;-68
2021/12/17 05:26:10;;;;;;;0.67;0.30;;;10.00;1.00;;;;;;5076021;28;20970;-69
2021/12/17 05:28:39;;;;;;;0.60;0.10;;;9.90;1.00;;;;;;5075328;28;20452;-69
2021/12/17 05:31:07;;;;;;;0.57;0.10;;;9.90;1.00;;;;;;5072768;28;20492;-69
2021/12/17 05:33:37;;;;;;;0.50;0.10;;;9.90;1.00;;;;;;5075822;28;20481;-69
2021/12/17 05:36:05;;;;;;;0.57;0.10;;;9.90;1.00;;;;;;5075135;28;20444;-69
2021/12/17 05:38:33;;;;;;;0.50;0.10;;;9.80;1.00;;;;;;5073136;28;20943;-68
2021/12/17 05:41:01;;;;;;;0.50;0.10;;;9.80;1.00;;;;;;5073623;28;20442;-67
2021/12/17 05:43:29;;;;;;;0.50;0.10;;;9.80;1.00;;;;;;5073080;28;20454;-69
2021/12/17 05:46:08;;;;;;;1.77;1.60;;;9.70;1.00;;;;;;5073763;28;20444;-68
2021/12/17 05:48:39;;;;;;;0.60;0.10;;;9.80;1.00;;;;;;5073687;28;20449;-69
2021/12/17 05:51:10;;;;;;;0.60;0.10;;;9.70;1.00;;;;;;5073986;28;20448;-69
2021/12/17 05:53:38;;;;;;;0.73;0.47;;;9.80;1.00;;;;;;5074325;28;20488;-68
2021/12/17 05:56:06;;;;;;;0.50;0.10;;;9.70;1.00;;;;;;5074148;28;20442;-68
2021/12/17 05:58:34;;;;;;;0.50;0.10;;;9.70;1.00;;;;;;5074045;28;20450;-69
2021/12/17 06:01:02;;;;;;;0.50;0.10;;;9.70;1.00;;;;;;5072610;28;20459;-68
2021/12/17 06:03:30;;;;;;;0.60;0.10;;;9.80;1.00;;;;;;5072840;28;20457;-69
2021/12/17 06:05:59;;;;;;;0.50;0.10;;;9.80;1.00;;;;;;5074479;28;20958;-69
2021/12/17 06:08:27;;;;;;;0.50;0.20;;;9.80;1.00;;;;;;5077157;28;20842;-69
2021/12/17 06:10:54;;;;;;;0.50;0.10;;;9.80;1.00;;;;;;5076648;28;20858;-69
2021/12/17 06:13:22;;;;;;;0.60;0.10;;;9.70;1.00;;;;;;5074352;28;20486;-69
2021/12/17 06:15:50;;;;;;;0.53;0.10;;;9.70;1.00;;;;;;5074266;28;20940;-68
2021/12/17 06:18:18;;;;;;;0.90;0.43;;;9.70;1.00;;;;;;5073497;28;20499;-68
2021/12/17 06:20:46;;;;;;;0.90;0.90;;;9.70;1.00;;;;;;5076910;28;21002;-69
2021/12/17 06:23:15;;;;;;;0.60;0.10;;;9.70;1.00;;;;;;5076032;28;20457;-69
2021/12/17 06:25:43;;;;;;;0.50;0.10;;;9.70;1.00;;;;;;5074719;28;20442;-69
2021/12/17 06:28:13;;;;;;;0.50;0.10;;;;;;;;;;5075796;28;20445;-68
2021/12/17 06:30:42;;;;;;;0.50;0.10;;;9.70;1.00;;;;;;5075563;28;20448;-68
2021/12/17 06:33:10;;;;;;;1.00;0.73;;;9.70;1.00;;;;;;5073980;28;20503;-69
2021/12/17 06:35:38;;;;;;;0.50;0.10;;;9.70;1.00;;;;;;5073152;28;20463;-69
2021/12/17 06:38:06;;;;;;;0.50;0.10;;;9.70;1.00;;;;;;5073703;28;20544;-69
2021/12/17 06:40:35;;;;;;;0.60;0.10;;;9.70;1.00;;;;;;5070352;28;20549;-69
2021/12/17 06:43:04;;;;;;;0.50;0.10;;;9.70;1.00;;;;;;5072047;28;20457;-69
2021/12/17 06:45:49;;;;;;;0.50;0.10;;;9.70;1.00;;;;;;5073327;28;20568;-68
2021/12/17 06:48:21;;;;;;;0.60;0.10;;;9.70;1.00;;;;;;5075022;28;20445;-69
2021/12/17 06:59:32;;;;;;;0.60;0.10;;;9.60;1.00;;;;;;4982013;28;20514;-69
2021/12/17 07:10:35;;;;;;;0.60;0.10;;;9.50;1.00;;;;;;5075722;28;20525;-69
2021/12/17 07:19:18;;;;;;;0.50;0.10;;;9.60;1.00;;;;;;5058332;28;20437;-68
2021/12/17 07:21:43;;;;;;;0.50;0.10;;;9.60;1.00;;;;;;5058392;28;20433;-69
2021/12/17 07:32:41;;;;;;;0.60;0.33;;;9.50;1.00;;;;;;5077135;28;20448;-68
2021/12/17 07:35:42;;;;;;;0.50;0.10;;;9.40;1.00;;;;;;5078802;28;20462;-69
2021/12/17 07:40:56;;;;;;;0.93;0.83;;;9.40;1.00;;;;;;5078299;28;20459;-69
2021/12/17 07:43:28;;;;;;;0.57;0.10;;;9.40;1.00;;;;;;5078387;28;20457;-69
2021/12/17 07:45:58;;;;;;;1.43;1.33;;;9.40;1.00;;;;;;5077803;28;20459;-68
2021/12/17 07:48:26;;;;;;;0.60;0.10;;;9.40;1.00;;;;;;5078383;28;20923;-70
2021/12/17 07:50:54;;;;;;;0.50;0.10;;;9.40;1.00;;;;;;5078260;28;20945;-69
2021/12/17 07:53:23;;;;;;;0.50;0.10;;;9.40;1.00;;;;;;5075785;28;21003;-69
2021/12/17 07:55:51;;;;;;;0.50;0.10;;;9.40;1.00;;;;;;5074112;28;20457;-69
2021/12/17 07:58:18;;;;;;;0.50;0.10;;;9.40;1.00;;;;;;5077894;28;20476;-70
2021/12/17 08:00:46;;;;;;;0.50;0.10;;;9.50;1.00;;;;;;5070205;28;20496;-69
2021/12/17 08:03:16;;;;;;;0.50;0.20;;;9.50;1.00;;;;;;5057784;28;20466;-71
2021/12/17 08:05:44;;;;;;;0.50;0.10;;;9.50;1.00;;;;;;5060432;28;20510;-69
2021/12/17 08:08:12;;;;;;;0.50;0.20;;;9.50;1.00;;;;;;5074392;28;20907;-69
2021/12/17 08:10:40;;;;;;;0.50;0.10;;;9.40;1.00;;;;;;5073801;28;20448;-69
2021/12/17 08:13:13;;;;;;;0.60;0.10;;;9.50;1.00;;;;;;5074057;28;20458;-69
2021/12/17 08:15:57;;;;;;;0.50;0.10;;;9.50;1.00;;;;;;5074993;28;20441;-70
2021/12/17 08:26:54;;;;;;;0.60;0.10;;;9.60;1.00;;;;;;5073511;28;20457;-69
2021/12/17 08:29:28;;;;;;;2.43;1.07;;;9.60;1.00;;;;;;5072069;28;20629;-70
2021/12/17 08:31:56;;;;;;;0.60;0.10;;;9.60;1.00;;;;;;5074046;28;21006;-70
2021/12/17 08:34:25;;;;;;;0.50;0.10;;;9.50;1.00;;;;;;5073815;28;20808;-69
2021/12/17 08:36:55;;;;;;;0.53;0.20;;;9.60;1.00;;;;;;5074307;28;20448;-69
2021/12/17 08:39:25;;;;;;;0.50;0.30;;;9.60;1.00;;;;;;5076130;28;20453;-69
2021/12/17 08:41:55;;;;;;;0.50;0.10;;;9.60;1.00;;;;;;5070495;28;20943;-68
2021/12/17 08:44:24;;;;;;;0.57;0.10;;;9.60;1.00;;;;;;5070572;28;20506;-69
2021/12/17 08:46:52;;;;;;;0.60;0.10;;;9.60;1.00;;;;;;5073124;28;20780;-69
2021/12/17 08:49:20;;;;;;;0.50;0.13;;;9.50;1.00;;;;;;5074964;28;20811;-69
2021/12/17 08:51:53;;;;;;;0.50;0.10;;;;;;;;;;5074243;28;20440;-69
2021/12/17 08:54:21;;;;;;;0.50;0.10;;;9.60;1.00;;;;;;5073572;28;20485;-70
2021/12/17 08:56:50;;;;;;;0.50;0.10;;;9.60;1.00;;;;;;5074267;28;20445;-68
2021/12/17 08:59:18;;;;;;;0.50;0.10;;;9.60;1.00;;;;;;5073792;28;20566;-70
2021/12/17 09:01:47;;;;;;;0.50;0.10;;;9.60;1.00;;;;;;5071266;28;20943;-69
2021/12/17 09:04:15;;;;;;;0.50;0.10;;;9.70;1.00;;;;;;5060722;28;20469;-69
2021/12/17 09:06:43;;;;;;;0.50;0.10;;;12.00;1.00;;;;;;5073929;28;20812;-69
2021/12/17 09:09:17;;;;;;;0.50;0.10;;;9.70;1.00;;;;;;5073448;28;20444;-68
2021/12/17 09:11:46;;;;;;;0.60;0.10;;;9.70;1.00;;;;;;5073993;28;20438;-69
2021/12/17 09:14:14;;;;;;;0.60;0.10;;;9.70;1.00;;;;;;5069363;28;20484;-69
2021/12/17 09:16:42;;;;;;;0.50;0.10;;;9.70;1.00;;;;;;5072735;28;20974;-69
2021/12/17 09:19:11;;;;;;;0.50;0.10;;;9.80;1.00;;;;;;5072918;28;20532;-70
2021/12/17 09:21:39;;;;;;;0.50;0.10;;;9.70;1.00;;;;;;5073086;28;20498;-70
2021/12/17 09:24:08;;;;;;;0.70;0.40;;;9.80;1.00;;;;;;5073059;28;20512;-70
2021/12/17 09:26:37;;;;;;;0.70;0.50;;;9.80;1.00;;;;;;5074470;28;20534;-70
2021/12/17 09:29:05;;;;;;;0.60;0.20;;;9.80;1.00;;;;;;5069571;28;20462;-69
2021/12/17 09:31:33;;;;;;;0.60;0.20;;;9.80;1.00;;;;;;5064804;28;20443;-68
2021/12/17 09:34:01;;;;;;;0.60;0.10;;;9.80;1.00;;;;;;5072061;28;20477;-70
2021/12/17 09:36:29;;;;;;;0.60;0.40;;;9.80;1.00;;;;;;5072448;28;20444;-69
2021/12/17 09:38:57;;;;;;;0.60;0.10;;;9.90;1.00;;;;;;5072930;28;20441;-69
2021/12/17 09:41:26;;;;;;;0.67;0.40;;;9.80;1.00;;;;;;5072902;28;20438;-68
2021/12/17 09:43:56;;;;;;;0.60;0.10;;;9.80;1.00;;;;;;5067762;28;20476;-69
2021/12/17 09:46:23;;;;;;;0.50;0.10;;;9.80;1.00;;;;;;5061951;28;20484;-69
2021/12/17 09:48:52;;;;;;;0.50;0.10;;;9.80;1.00;;;;;;5068726;28;20993;-69
2021/12/17 09:51:21;;;;;;;0.50;0.10;;;10.30;1.00;;;;;;5066466;28;20485;-69
2021/12/17 09:53:49;;;;;;;1.63;1.30;;;9.80;1.00;;;;;;5069497;28;20469;-69
2021/12/17 09:56:18;;;;;;;0.60;0.20;;;9.80;1.00;;;;;;5072539;28;20876;-69
2021/12/17 09:58:45;;;;;;;1.23;1.13;;;9.90;1.00;;;;;;5072331;28;20457;-69
2021/12/17 10:01:15;;;;;;;0.53;0.10;;;9.90;1.00;;;;;;5072062;28;20825;-69
2021/12/17 10:03:42;;;;;;;0.50;0.10;;;9.90;1.00;;;;;;5072787;28;20457;-68
2021/12/17 10:06:21;;;;;;;1.10;1.00;;;9.90;1.00;;;;;;5072519;28;20437;-70
2021/12/17 10:08:51;;;;;;;0.60;0.10;;;9.20;1.00;;;;;;5072311;28;20818;-70
2021/12/17 10:11:20;;;;;;;2.20;2.00;;;9.90;1.00;;;;;;5067781;28;20527;-69
2021/12/17 10:13:50;;;;;;;1.97;1.80;;;9.80;1.00;;;;;;5060605;28;20470;-70
2021/12/17 10:16:22;;;;;;;0.60;0.10;;;9.80;1.00;;;;;;5072288;28;20519;-69
2021/12/17 10:18:51;;;;;;;0.60;0.10;;;9.80;1.00;;;;;;5072448;28;20833;-71
2021/12/17 10:21:21;;;;;;;0.80;0.40;;;9.80;1.00;;;;;;5072835;28;20472;-69
2021/12/17 10:23:51;;;;;;;0.60;0.10;;;9.80;1.00;;;;;;5071811;28;20456;-68
2021/12/17 10:26:21;;;;;;;0.60;0.20;;;9.80;1.00;;;;;;5072163;28;20442;-70
2021/12/17 10:28:55;;;;;;;0.60;0.20;;;9.80;1.00;;;;;;5072297;28;20528;-70
2021/12/17 10:31:27;;;;;;;0.60;0.10;;;9.80;1.00;;;;;;5072748;28;20460;-69
2021/12/17 10:33:58;;;;;;;0.57;0.10;;;9.80;1.00;;;;;;5070103;28;20480;-70
2021/12/17 10:36:31;;;;;;;2.20;2.10;;;9.80;1.00;;;;;;5065504;28;21067;-68
2021/12/17 10:39:22;;;;;;;0.50;0.10;;;9.80;1.00;;;;;;5072204;28;20935;-70
2021/12/17 10:41:50;;;;;;;1.53;1.43;;;9.80;1.00;;;;;;5072365;28;20532;-69
2021/12/17 10:44:20;;;;;;;0.70;0.70;;;9.80;1.00;;;;;;5072492;28;20464;-70
2021/12/17 10:47:08;;;;;;;0.60;0.10;;;9.80;1.00;;;;;;5066162;28;20457;-69
2021/12/17 10:49:36;;;;;;;0.60;0.10;;;10.80;1.00;;;;;;5072477;28;20441;-70
2021/12/17 10:52:07;;;;;;;0.70;0.30;;;9.80;1.00;;;;;;5063013;28;20472;-69
2021/12/17 10:54:36;;;;;;;0.60;0.10;;;9.80;1.00;;;;;;5071509;28;20497;-68
2021/12/17 10:57:08;;;;;;;0.50;0.10;;;9.80;1.00;;;;;;5071911;28;20488;-69
2021/12/17 10:59:37;;;;;;;0.60;0.10;;;9.80;1.00;;;;;;5070761;28;20457;-69
2021/12/17 11:02:11;;;;;;;0.50;0.10;;;9.80;1.00;;;;;;5072102;28;20441;-70
2021/12/17 11:04:40;;;;;;;0.60;0.10;;;9.80;1.00;;;;;;5072150;28;20441;-70
2021/12/17 11:07:12;;;;;;;0.50;0.10;;;9.90;1.00;;;;;;5072551;28;20499;-70
2021/12/17 11:09:43;;;;;;;0.60;0.20;;;9.90;1.00;;;;;;5073420;28;20598;-68
2021/12/17 11:12:33;;;;;;;0.60;0.17;;;10.00;1.00;;;;;;5072778;28;20829;-68
2021/12/17 11:15:19;;;;;;;0.50;0.13;;;10.10;1.00;;;;;;5066607;28;20999;-68
2021/12/17 11:17:51;;;;;;;2.20;2.00;;;10.00;1.00;;;;;;5072959;28;20452;-69
2021/12/17 11:20:21;;;;;;;0.60;0.10;;;10.00;1.00;;;;;;5072120;28;20536;-69
2021/12/17 11:22:51;;;;;;;1.20;0.90;;;10.00;1.00;;;;;;5072810;28;20786;-70
2021/12/17 11:25:21;;;;;;;0.50;0.10;;;10.00;1.00;;;;;;5072444;28;20535;-68
2021/12/17 11:27:49;;;;;;;0.60;0.10;;;;;;;;;;5070409;28;20448;-69
2021/12/17 11:30:19;;;;;;;0.60;0.10;;;10.00;1.00;;;;;;5051535;28;20445;-69
2021/12/17 11:32:50;;;;;;;1.23;0.70;;;10.00;1.00;;;;;;5068452;28;20480;-69
2021/12/17 11:35:25;;;;;;;0.60;0.10;;;10.00;1.00;;;;;;5070546;28;21012;-70
2021/12/17 11:37:55;;;;;;;0.60;0.20;;;10.00;1.00;;;;;;5073138;28;20540;-70
2021/12/17 11:40:30;;;;;;;0.60;0.10;;;10.00;1.00;;;;;;5072054;28;20512;-69
2021/12/17 11:43:20;;;;;;;0.60;0.10;;;10.10;1.00;;;;;;5076985;28;20824;-74
2021/12/17 11:45:59;;;;;;;1.27;0.87;;;10.10;1.00;;;;;;5076192;28;20451;-70
2021/12/17 11:48:31;;;;;;;0.57;0.20;;;10.20;1.00;;;;;;5076537;28;20878;-70
2021/12/17 11:51:06;;;;;;;0.60;0.20;;;10.20;1.00;;;;;;5075858;28;20437;-71
2021/12/17 11:53:41;;;;;;;0.60;0.20;;;10.10;1.00;;;;;;5074833;28;20515;-69
2021/12/17 11:56:09;;;;;;;0.60;0.10;;;10.10;1.00;;;;;;5073890;28;20480;-69
2021/12/17 11:58:48;;;;;;;0.80;0.70;;;10.10;1.00;;;;;;5068885;28;20966;-68
2021/12/17 12:01:47;;;;;;;0.60;0.10;;;10.10;1.00;;;;;;5067601;28;21072;-68
2021/12/17 12:04:26;;;;;;;0.70;0.40;;;10.10;1.00;;;;;;5052712;28;20477;-70
2021/12/17 12:07:01;;;;;;;0.60;0.20;;;10.00;1.00;;;;;;5072680;28;20811;-69
2021/12/17 12:10:07;;;;;;;1.33;0.70;;;10.00;1.00;;;;;;5074150;28;20494;-69
2021/12/17 12:12:55;;;;;;;0.50;0.10;;;10.00;1.00;;;;;;5054860;28;20510;-68
2021/12/17 12:15:34;;;;;;;0.50;0.10;;;10.00;1.00;;;;;;5071017;28;20483;-70
2021/12/17 12:18:07;;;;;;;0.50;0.10;;;10.00;1.00;;;;;;5075149;28;20445;-69
2021/12/17 12:20:47;;;;;;;0.50;0.10;;;10.00;1.00;;;;;;5074195;28;20453;-69
2021/12/17 12:23:17;;;;;;;0.60;0.10;;;9.90;1.00;;;;;;5066890;28;20536;-68
2021/12/17 12:25:46;;;;;;;0.50;0.10;;;9.90;1.00;;;;;;5072975;28;20449;-69
2021/12/17 12:28:15;;;;;;;0.50;0.10;;;9.90;1.00;;;;;;5060265;28;20445;-69
2021/12/17 12:30:45;;;;;;;0.53;0.10;;;9.90;1.00;;;;;;5074375;28;20452;-69
2021/12/17 12:33:15;;;;;;;0.60;0.10;;;9.90;1.00;;;;;;5054460;28;20458;-68
2021/12/17 12:35:58;;;;;;;0.50;0.10;;;9.90;1.00;;;;;;5053718;28;20473;-68
2021/12/17 12:38:31;;;;;;;0.60;0.10;;;10.00;1.00;;;;;;5056389;28;20452;-68
2021/12/17 12:41:03;;;;;;;0.60;0.10;;;10.00;1.00;;;;;;5055821;28;20443;-69
2021/12/17 12:43:34;;;;;;;0.60;0.10;;;10.00;1.00;;;;;;5060605;28;20468;-69
2021/12/17 12:46:03;;;;;;;0.50;0.10;;;10.00;1.00;;;;;;5074163;28;20434;-69
2021/12/17 12:48:36;;;;;;;0.50;0.10;;;10.00;1.00;;;;;;5074476;28;20476;-69
2021/12/17 12:51:16;;;;;;;0.60;0.10;;;9.90;1.00;;;;;;5073831;28;20444;-68
2021/12/17 12:54:02;;;;;;;0.60;0.10;;;9.90;1.00;;;;;;5074017;28;20479;-70
2021/12/17 12:56:30;;;;;;;0.50;0.10;;;10.00;1.00;;;;;;5073628;28;20481;-68
2021/12/17 12:58:58;;;;;;;0.50;0.10;;;10.00;1.00;;;;;;5074226;28;20806;-68
2021/12/17 13:01:26;;;;;;;0.57;0.10;;;10.00;1.00;;;;;;5073501;28;20474;-68
2021/12/17 13:03:54;;;;;;;0.50;0.10;;;;;;;;;;5073140;28;20552;-68
2021/12/17 13:06:25;;;;;;;0.60;0.10;;;10.10;1.00;;;;;;5063027;28;20528;-69
2021/12/17 13:08:54;;;;;;;0.60;0.10;;;10.10;1.00;;;;;;5073704;28;20465;-70
2021/12/17 13:11:23;;;;;;;0.50;0.10;;;10.10;1.00;;;;;;5073859;28;20430;-68
2021/12/17 13:13:54;;;;;;;0.60;0.10;;;10.20;1.00;;;;;;5073975;28;20464;-70
2021/12/17 13:16:36;;;;;;;0.57;0.10;;;10.20;1.00;;;;;;5072891;28;20482;-69
2021/12/17 13:22:02;;;;;;;0.60;0.10;;;10.10;1.00;;;;;;5073591;28;20441;-69
2021/12/17 13:24:33;;;;;;;0.50;0.10;;;10.10;1.00;;;;;;5072868;28;20472;-70
2021/12/17 13:27:02;;;;;;;0.60;0.10;;;10.00;1.00;;;;;;5073306;28;20814;-69
2021/12/17 13:29:34;;;;;;;0.60;0.10;;;10.10;1.00;;;;;;5072919;28;20436;-69
2021/12/17 13:32:04;;;;;;;0.57;0.10;;;10.00;1.00;;;;;;5073379;28;20437;-68
2021/12/17 13:34:34;;;;;;;0.60;0.10;;;10.00;1.00;;;;;;5071897;28;20476;-69
2021/12/17 13:37:10;;;;;;;0.60;0.30;;;10.00;1.00;;;;;;5072820;28;20480;-69
2021/12/17 13:39:42;;;;;;;0.50;0.10;;;10.00;1.00;;;;;;5074624;28;20865;-68
2021/12/17 13:42:14;;;;;;;0.50;0.13;;;9.90;1.00;;;;;;5073969;28;20456;-68
2021/12/17 13:44:48;;;;;;;0.60;0.10;;;9.90;1.00;;;;;;5072427;28;20445;-67
2021/12/17 13:47:31;;;;;;;0.50;0.10;;;9.90;1.00;;;;;;5072965;28;20444;-68
2021/12/17 13:50:11;;;;;;;0.50;0.10;;;9.90;1.00;;;;;;5072494;28;20434;-67
2021/12/17 13:52:48;;;;;;;0.53;0.10;;;9.90;1.00;;;;;;5052597;28;21014;-67
2021/12/17 13:55:18;;;;;;;0.50;0.10;;;9.90;1.00;;;;;;5063898;28;20464;-68
2021/12/17 13:57:46;;;;;;;0.50;0.10;;;9.90;1.00;;;;;;5072753;28;20492;-67
2021/12/17 14:00:17;;;;;;;0.60;0.10;;;9.80;1.00;;;;;;5074048;28;20446;-66
2021/12/17 14:02:47;;;;;;;0.50;0.10;;;9.90;1.00;;;;;;5072380;28;20462;-69
2021/12/17 14:05:20;;;;;;;0.50;0.10;;;9.90;1.00;;;;;;5072868;28;20445;-69
2021/12/17 14:07:52;;;;;;;0.50;0.10;;;9.90;1.00;;;;;;5073917;28;20441;-68
2021/12/17 14:10:21;;;;;;;0.60;0.10;;;9.90;1.00;;;;;;5073501;28;20445;-68
2021/12/17 14:12:50;;;;;;;0.60;0.10;;;10.00;1.00;;;;;;5072751;28;20461;-67
2021/12/17 14:15:40;;;;;;;0.50;0.10;;;10.00;1.00;;;;;;5071675;28;20442;-67
2021/12/17 14:18:11;;;;;;;0.60;0.10;;;10.00;1.00;;;;;;5074014;28;20479;-68
2021/12/17 14:20:41;;;;;;;0.50;0.10;;;10.00;1.00;;;;;;5074093;28;20496;-69
2021/12/17 14:23:12;;;;;;;0.50;0.10;;;10.00;1.00;;;;;;5073088;28;20474;-69
2021/12/17 14:25:42;;;;;;;0.60;0.10;;;10.00;1.00;;;;;;5071886;28;20442;-68
2021/12/17 14:28:15;;;;;;;0.50;0.10;;;10.00;1.00;;;;;;5072001;28;20437;-70
2021/12/17 14:30:48;;;;;;;0.60;0.10;;;10.10;1.00;;;;;;5071594;28;20518;-68
2021/12/17 14:33:18;;;;;;;0.60;0.10;;;10.10;1.00;;;;;;5071537;28;20849;-70
2021/12/17 14:35:56;;;;;;;0.50;0.10;;;10.10;1.00;;;;;;5072798;28;20442;-69
2021/12/17 14:38:39;;;;;;;0.60;0.10;;;10.10;1.00;;;;;;5072007;28;20476;-69
2021/12/17 14:41:11;;;;;;;0.60;0.10;;;10.20;1.00;;;;;;5071541;28;20447;-69
2021/12/17 14:43:43;;;;;;;0.60;0.10;;;10.20;1.00;;;;;;5071833;28;20473;-69
2021/12/17 14:46:18;;;;;;;0.60;0.10;;;10.20;1.00;;;;;;5050983;28;20810;-69
2021/12/17 14:49:02;;;;;;;0.60;0.10;;;10.20;1.00;;;;;;5051622;28;20562;-68
2021/12/17 15:03:19;;;;;;;0.50;0.10;;;10.10;1.00;;;;;;5089537;28;20563;-69
2021/12/17 15:05:54;;;;;;;0.50;0.10;;;10.20;1.00;;;;;;5088950;28;20490;-70
2021/12/17 15:08:23;;;;;;;0.53;0.20;;;;;;;;;;5089275;28;20802;-70
2021/12/17 15:10:51;;;;;;;0.50;0.10;;;10.10;1.00;;;;;;5081637;28;20528;-69
2021/12/17 15:13:19;;;;;;;0.60;0.10;;;10.20;1.00;;;;;;5087318;28;20468;-69
2021/12/17 15:15:47;;;;;;;0.50;0.20;;;10.10;1.00;;;;;;5080860;28;20494;-68
2021/12/17 15:18:19;;;;;;;0.50;0.10;;;10.10;1.00;;;;;;5078957;28;20452;-71
2021/12/17 15:20:49;;;;;;;0.60;0.10;;;10.10;1.00;;;;;;5088233;28;20463;-70
2021/12/17 15:23:18;;;;;;;0.50;0.10;;;10.10;1.00;;;;;;5086991;28;20996;-70
2021/12/17 15:25:47;;;;;;;0.60;0.10;;;10.20;1.00;;;;;;5089355;28;20524;-69
2021/12/17 15:28:17;;;;;;;0.60;0.10;;;10.10;1.00;;;;;;5084836;28;20457;-69
2021/12/17 15:30:47;;;;;;;0.57;0.10;;;10.10;1.00;;;;;;5099896;22;20494;-66
2021/12/17 15:33:17;;;;;;;0.60;0.10;;;10.10;1.00;;;;;;5042891;28;20465;-65
2021/12/17 15:35:47;;;;;;;0.50;0.10;;;10.10;1.00;;;;;;5048496;28;20462;-65
2021/12/17 15:38:15;;;;;;;0.50;0.10;;;10.10;1.00;;;;;;5046757;28;20485;-65
2021/12/17 15:40:45;;;;;;;0.60;0.10;;;10.10;1.00;;;;;;5047491;28;20748;-66
2021/12/17 15:43:15;;;;;;;0.60;0.10;;;10.00;1.00;;;;;;5035882;28;20590;-72
2021/12/17 15:45:45;;;;;;;0.57;0.10;;;10.10;1.00;;;;;;5031123;28;20782;-65
2021/12/17 15:48:15;;;;;;;0.60;0.17;;;10.10;1.00;;;;;;5034139;28;20514;-66
2021/12/17 15:51:03;;;;;;;0.53;0.10;;;10.10;1.00;;;;;;5026349;28;20502;-66